Time;durP1;ratioP1;P1;durP2;ratioP2;P2;SDS_P1;SDS_P2;PMS_P1;PMS_P2;Temp;Humidity;BMP_temperature;BMP_pressure;BME280_temperature;BME280_humidity;BME280_pressure;Samples;Min_cycle;Max_cycle;Signal;HPM_P1;HPM_P2
2022/07/29 00:00:17;;;;;;;11.93;7.55;;;;;;;;;;4804229;29;20038;-56
2022/07/29 00:02:43;;;;;;;13.52;7.28;;;;;;;;;;4804139;29;20038;-55
2022/07/29 00:05:13;;;;;;;13.88;7.20;;;;;;;;;;4804161;29;20088;-55
2022/07/29 00:07:39;;;;;;;17.67;8.02;;;;;;;;;;4804313;29;20472;-56
2022/07/29 00:10:05;;;;;;;11.57;7.65;;;;;;;;;;4804173;29;20027;-57
2022/07/29 00:12:31;;;;;;;11.02;7.78;;;;;;;;;;4803540;29;20091;-57
2022/07/29 00:14:57;;;;;;;19.77;8.05;;;;;;;;;;4803781;29;20511;-57
2022/07/29 00:17:23;;;;;;;14.18;7.75;;;;;;;;;;4803818;29;20027;-58
2022/07/29 00:19:50;;;;;;;15.02;8.43;;;;;;;;;;4803764;29;20031;-57
2022/07/29 00:22:16;;;;;;;12.85;8.23;;;;;;;;;;4804079;29;20023;-54
2022/07/29 00:24:42;;;;;;;13.13;8.13;;;;;;;;;;4804014;29;20110;-56
2022/07/29 00:27:08;;;;;;;13.80;8.32;;;;;;;;;;4803415;29;20042;-54
2022/07/29 00:29:34;;;;;;;12.40;8.27;;;;;;;;;;4803728;29;20031;-54
2022/07/29 00:32:00;;;;;;;15.13;9.02;;;;;;;;;;4800569;29;20554;-56
2022/07/29 00:37:11;;;;;;;14.77;8.90;;;;;;;;;;4785694;30;20074;-56
2022/07/29 00:39:37;;;;;;;12.65;9.00;;;;;;;;;;4785839;30;20485;-55
2022/07/29 00:42:04;;;;;;;19.40;8.80;;;;;;;;;;4785419;30;20066;-55
2022/07/29 00:44:30;;;;;;;13.70;8.73;;;;;;;;;;4769628;30;20032;-57
2022/07/29 00:46:57;;;;;;;13.23;9.00;;;;;;;;;;4785673;30;20098;-56
2022/07/29 00:49:23;;;;;;;14.57;8.70;;;;;;;;;;4785614;30;20126;-55
2022/07/29 00:51:50;;;;;;;12.40;8.52;;;;;;;;;;4785737;30;20052;-56
2022/07/29 00:54:16;;;;;;;11.13;8.98;;;;;;;;;;4785672;30;20465;-56
2022/07/29 00:56:42;;;;;;;13.10;9.55;;;;;;;;;;4785788;30;20035;-55
2022/07/29 00:59:08;;;;;;;14.07;9.38;;;;;;;;;;4786736;29;20046;-55
2022/07/29 01:01:34;;;;;;;15.27;8.88;;;;;;;;;;4788949;30;20047;-56
2022/07/29 01:04:00;;;;;;;12.15;9.43;;;;;;;;;;4788935;30;20039;-56
2022/07/29 01:06:27;;;;;;;13.38;9.25;;;;;;;;;;4789059;30;20037;-56
2022/07/29 01:08:53;;;;;;;17.15;8.90;;;;;;;;;;4788717;30;20044;-55
2022/07/29 01:11:19;;;;;;;12.10;8.77;;;;;;;;;;4788944;30;20054;-55
2022/07/29 01:13:46;;;;;;;10.50;8.93;;;;;;;;;;4788732;30;20122;-55
2022/07/29 01:16:21;;;;;;;15.10;9.35;;;;;;;;;;4772339;30;20392;-55
2022/07/29 01:18:50;;;;;;;13.07;9.77;;;;;;;;;;4788704;30;20431;-55
2022/07/29 01:21:16;;;;;;;13.50;9.23;;;;;;;;;;4788714;30;20358;-55
2022/07/29 01:24:01;;;;;;;12.35;9.30;;;;;;;;;;4788496;30;20111;-55
2022/07/29 01:26:45;;;;;;;16.75;10.25;;;;;;;;;;4788501;30;20130;-55
2022/07/29 01:29:11;;;;;;;13.32;9.63;;;;;;;;;;4788519;30;20506;-56
2022/07/29 01:31:54;;;;;;;15.40;10.40;;;;;;;;;;4788086;29;20528;-55
2022/07/29 01:34:41;;;;;;;16.88;10.05;;;;;;;;;;4788501;30;20047;-55
2022/07/29 01:37:11;;;;;;;16.75;9.88;;;;;;;;;;4788201;30;20035;-55
2022/07/29 01:39:39;;;;;;;14.43;10.23;;;;;;;;;;4788453;30;20042;-55
2022/07/29 01:42:15;;;;;;;13.10;9.80;;;;;;;;;;4788065;30;20106;-55
2022/07/29 01:44:54;;;;;;;14.23;10.20;;;;;;;;;;4788119;30;20032;-55
2022/07/29 01:47:21;;;;;;;14.85;9.68;;;;;;;;;;4788042;30;20642;-56
2022/07/29 01:49:50;;;;;;;14.35;9.32;;;;;;;;;;4788797;30;20031;-56
2022/07/29 01:52:20;;;;;;;15.48;10.40;;;;;;;;;;4788071;30;20027;-55
2022/07/29 01:54:52;;;;;;;16.98;10.07;;;;;;;;;;4788070;30;20391;-56
2022/07/29 01:57:20;;;;;;;13.32;9.45;;;;;;;;;;4787831;30;20556;-56
2022/07/29 01:59:47;;;;;;;14.40;10.23;;;;;;;;;;4787929;30;20054;-55
2022/07/29 02:02:15;;;;;;;13.40;9.52;;;;;;;;;;4789307;30;20031;-55
2022/07/29 02:04:43;;;;;;;12.18;10.40;;;;;;;;;;4789504;30;20117;-55
2022/07/29 02:07:11;;;;;;;15.02;10.18;;;;;;;;;;4788022;30;20493;-55
2022/07/29 02:09:38;;;;;;;12.63;10.05;;;;;;;;;;4787934;30;20039;-55
2022/07/29 02:12:05;;;;;;;14.45;10.10;;;;;;;;;;4786832;29;20036;-55
2022/07/29 02:14:33;;;;;;;14.57;10.25;;;;;;;;;;4787621;30;20090;-55
2022/07/29 02:17:01;;;;;;;14.15;8.90;;;;;;;;;;4787646;30;20069;-55
2022/07/29 02:19:27;;;;;;;14.93;9.52;;;;;;;;;;4787620;30;20560;-55
2022/07/29 02:21:55;;;;;;;12.88;9.40;;;;;;;;;;4771553;30;20035;-55
2022/07/29 02:24:21;;;;;;;12.95;9.48;;;;;;;;;;4787500;30;20027;-55
2022/07/29 02:26:48;;;;;;;12.52;9.75;;;;;;;;;;4787347;30;20031;-55
2022/07/29 02:29:15;;;;;;;13.65;9.15;;;;;;;;;;4787483;30;20035;-55
2022/07/29 02:31:43;;;;;;;13.38;9.10;;;;;;;;;;4786835;29;20039;-55
2022/07/29 02:34:11;;;;;;;13.05;8.93;;;;;;;;;;4787348;30;20097;-55
2022/07/29 02:36:37;;;;;;;11.13;8.00;;;;;;;;;;4787916;30;20031;-56
2022/07/29 02:39:04;;;;;;;13.93;8.43;;;;;;;;;;4787310;30;20401;-55
2022/07/29 02:41:45;;;;;;;15.30;8.68;;;;;;;;;;4787293;30;20027;-55
2022/07/29 02:44:13;;;;;;;12.32;9.00;;;;;;;;;;4787013;30;20062;-56
2022/07/29 02:46:47;;;;;;;11.70;8.48;;;;;;;;;;4787165;30;20097;-56
2022/07/29 02:49:26;;;;;;;16.15;9.00;;;;;;;;;;4786894;30;20035;-60
2022/07/29 02:51:58;;;;;;;12.25;8.45;;;;;;;;;;4787348;30;20035;-56
2022/07/29 02:54:32;;;;;;;15.07;8.77;;;;;;;;;;4786769;30;20480;-56
2022/07/29 02:56:59;;;;;;;12.38;8.68;;;;;;;;;;4787244;30;20031;-56
2022/07/29 02:59:27;;;;;;;12.80;8.75;;;;;;;;;;4786833;30;20058;-55
2022/07/29 03:01:54;;;;;;;11.80;8.60;;;;;;;;;;4786642;30;20929;-56
2022/07/29 03:04:21;;;;;;;16.27;9.27;;;;;;;;;;4786702;30;20499;-56
2022/07/29 03:06:49;;;;;;;13.38;7.63;;;;;;;;;;4787233;30;20104;-55
2022/07/29 03:09:15;;;;;;;10.35;8.48;;;;;;;;;;4786560;30;20035;-56
2022/07/29 03:11:44;;;;;;;13.60;8.20;;;;;;;;;;4786839;30;20114;-56
2022/07/29 03:14:10;;;;;;;12.18;8.27;;;;;;;;;;4786693;30;20113;-56
2022/07/29 03:16:37;;;;;;;11.05;7.95;;;;;;;;;;4787036;30;20046;-60
2022/07/29 03:19:03;;;;;;;10.32;7.95;;;;;;;;;;4786793;30;20470;-55
2022/07/29 03:21:30;;;;;;;14.30;8.60;;;;;;;;;;4786769;30;20027;-56
2022/07/29 03:23:56;;;;;;;12.95;8.55;;;;;;;;;;4786665;29;20447;-55
2022/07/29 03:26:22;;;;;;;10.40;8.30;;;;;;;;;;4786744;30;20418;-55
2022/07/29 03:28:48;;;;;;;10.65;7.97;;;;;;;;;;4786453;30;20496;-55
2022/07/29 03:31:14;;;;;;;12.85;7.88;;;;;;;;;;4786620;30;20172;-56
2022/07/29 03:33:40;;;;;;;11.82;8.15;;;;;;;;;;4786245;29;20124;-55
2022/07/29 03:36:06;;;;;;;10.77;7.88;;;;;;;;;;4786638;30;20480;-56
2022/07/29 03:38:34;;;;;;;10.98;7.50;;;;;;;;;;4786611;30;20035;-56
2022/07/29 03:41:02;;;;;;;10.55;7.53;;;;;;;;;;4786412;30;20082;-55
2022/07/29 03:43:31;;;;;;;12.82;7.50;;;;;;;;;;4786157;30;20027;-56
2022/07/29 03:45:58;;;;;;;11.15;8.30;;;;;;;;;;4786494;30;20509;-55
2022/07/29 03:48:25;;;;;;;9.98;7.22;;;;;;;;;;4786408;30;20496;-56
2022/07/29 03:50:52;;;;;;;12.80;8.10;;;;;;;;;;4786398;30;20041;-55
2022/07/29 03:53:18;;;;;;;11.38;7.40;;;;;;;;;;4786266;30;20031;-55
2022/07/29 03:55:47;;;;;;;12.75;7.22;;;;;;;;;;4786453;30;20030;-55
2022/07/29 03:58:13;;;;;;;10.75;7.45;;;;;;;;;;4786170;30;20027;-56
2022/07/29 04:00:41;;;;;;;9.23;6.95;;;;;;;;;;4786152;30;20485;-55
2022/07/29 04:03:07;;;;;;;13.57;7.22;;;;;;;;;;4769719;30;20051;-55
2022/07/29 04:05:33;;;;;;;10.10;7.22;;;;;;;;;;4786373;30;20050;-53
2022/07/29 04:07:59;;;;;;;13.73;7.03;;;;;;;;;;4786249;30;20028;-53
2022/07/29 04:10:25;;;;;;;11.52;6.60;;;;;;;;;;4785923;30;20092;-53
2022/07/29 04:12:52;;;;;;;11.15;5.85;;;;;;;;;;4785697;30;20038;-53
2022/07/29 04:15:18;;;;;;;10.15;6.32;;;;;;;;;;4785909;30;20451;-53
2022/07/29 04:17:44;;;;;;;9.88;6.53;;;;;;;;;;4785966;30;20032;-52
2022/07/29 04:20:13;;;;;;;11.48;6.32;;;;;;;;;;4785829;30;20043;-52
2022/07/29 04:22:39;;;;;;;11.13;6.25;;;;;;;;;;4786189;30;20495;-54
2022/07/29 04:25:05;;;;;;;11.02;5.90;;;;;;;;;;4786174;30;20137;-53
2022/07/29 04:27:31;;;;;;;9.55;5.80;;;;;;;;;;4786214;30;20046;-54
2022/07/29 04:29:57;;;;;;;15.02;6.70;;;;;;;;;;4786067;30;20035;-54
2022/07/29 04:32:24;;;;;;;11.48;5.90;;;;;;;;;;4785637;29;20067;-54
2022/07/29 04:34:50;;;;;;;8.63;6.15;;;;;;;;;;4787694;29;20082;-54
2022/07/29 04:37:16;;;;;;;8.98;6.28;;;;;;;;;;4789661;30;20035;-53
2022/07/29 04:39:42;;;;;;;10.35;6.22;;;;;;;;;;4789684;30;20067;-52
2022/07/29 04:42:08;;;;;;;8.15;6.05;;;;;;;;;;4789677;30;20505;-53
2022/07/29 04:44:34;;;;;;;10.32;5.45;;;;;;;;;;4789190;30;20460;-53
2022/07/29 04:47:00;;;;;;;8.55;5.30;;;;;;;;;;4789695;30;20517;-53
2022/07/29 04:49:26;;;;;;;10.15;5.70;;;;;;;;;;4789381;30;20035;-53
2022/07/29 04:51:52;;;;;;;9.23;5.20;;;;;;;;;;4789474;30;20299;-53
2022/07/29 04:54:18;;;;;;;7.82;5.70;;;;;;;;;;4789507;30;20047;-53
2022/07/29 04:56:46;;;;;;;7.85;5.53;;;;;;;;;;4789447;30;20042;-53
2022/07/29 04:59:12;;;;;;;10.50;6.30;;;;;;;;;;4788972;30;20051;-53
2022/07/29 05:01:38;;;;;;;6.05;5.28;;;;;;;;;;4789356;30;20050;-53
2022/07/29 05:04:04;;;;;;;8.07;5.82;;;;;;;;;;4788429;30;20042;-53
2022/07/29 05:06:30;;;;;;;9.63;5.82;;;;;;;;;;4788850;30;20516;-55
2022/07/29 05:08:56;;;;;;;9.50;6.13;;;;;;;;;;4788582;30;20058;-56
2022/07/29 05:11:22;;;;;;;10.10;5.20;;;;;;;;;;4788790;30;20077;-58
2022/07/29 05:13:48;;;;;;;9.15;5.43;;;;;;;;;;4788406;30;20055;-57
2022/07/29 05:16:14;;;;;;;7.32;5.50;;;;;;;;;;4788764;30;20058;-57
2022/07/29 05:18:40;;;;;;;9.45;5.53;;;;;;;;;;4788551;30;20476;-57
2022/07/29 05:21:06;;;;;;;13.38;5.53;;;;;;;;;;4788472;30;20543;-57
2022/07/29 05:23:32;;;;;;;8.65;4.85;;;;;;;;;;4788331;30;20122;-56
2022/07/29 05:25:58;;;;;;;8.02;5.25;;;;;;;;;;4788329;30;20062;-57
2022/07/29 05:28:24;;;;;;;13.32;7.47;;;;;;;;;;4788107;30;20035;-58
2022/07/29 05:30:50;;;;;;;12.43;7.00;;;;;;;;;;4787998;30;20031;-56
2022/07/29 05:33:16;;;;;;;13.00;6.60;;;;;;;;;;4787923;29;20173;-57
2022/07/29 05:35:42;;;;;;;11.23;6.20;;;;;;;;;;4788074;30;20081;-61
2022/07/29 05:38:08;;;;;;;11.52;6.38;;;;;;;;;;4788415;30;20110;-56
2022/07/29 05:40:34;;;;;;;11.13;6.20;;;;;;;;;;4788141;30;20042;-56
2022/07/29 05:43:00;;;;;;;9.30;6.20;;;;;;;;;;4787823;30;20377;-56
2022/07/29 05:45:27;;;;;;;12.30;5.78;;;;;;;;;;4787073;29;20247;-56
2022/07/29 05:47:53;;;;;;;6.38;5.22;;;;;;;;;;4787905;30;20042;-58
2022/07/29 05:50:19;;;;;;;11.55;5.82;;;;;;;;;;4788253;30;20031;-56
2022/07/29 05:52:45;;;;;;;12.95;5.68;;;;;;;;;;4788361;30;20039;-58
2022/07/29 05:55:11;;;;;;;11.43;5.70;;;;;;;;;;4787896;30;20044;-59
2022/07/29 05:57:37;;;;;;;11.30;5.60;;;;;;;;;;4787858;30;20106;-56
2022/07/29 06:00:03;;;;;;;12.57;5.50;;;;;;;;;;4787806;30;20047;-55
2022/07/29 06:02:29;;;;;;;10.65;5.70;;;;;;;;;;4788339;30;20035;-56
2022/07/29 06:04:56;;;;;;;12.93;5.10;;;;;;;;;;4787577;30;20028;-56
2022/07/29 06:07:22;;;;;;;7.80;5.30;;;;;;;;;;4787690;30;20032;-56
2022/07/29 06:09:48;;;;;;;10.18;5.13;;;;;;;;;;4787902;30;20034;-55
2022/07/29 06:12:14;;;;;;;8.95;5.40;;;;;;;;;;4787500;30;20378;-56
2022/07/29 06:14:40;;;;;;;11.07;5.07;;;;;;;;;;4787533;30;20046;-56
2022/07/29 06:17:06;;;;;;;9.18;5.25;;;;;;;;;;4787545;30;20027;-56
2022/07/29 06:19:34;;;;;;;6.18;5.18;;;;;;;;;;4787407;30;20039;-56
2022/07/29 06:22:00;;;;;;;6.47;4.78;;;;;;;;;;4787271;30;20027;-56
2022/07/29 06:24:26;;;;;;;7.45;4.95;;;;;;;;;;4787627;30;20135;-56
2022/07/29 06:26:52;;;;;;;7.78;5.05;;;;;;;;;;4787598;30;20058;-56
2022/07/29 06:29:19;;;;;;;7.35;5.20;;;;;;;;;;4787363;30;20035;-55
2022/07/29 06:31:45;;;;;;;10.13;5.53;;;;;;;;;;4787170;29;20043;-57
2022/07/29 06:34:11;;;;;;;9.18;5.03;;;;;;;;;;4786818;30;20046;-56
2022/07/29 06:36:38;;;;;;;7.38;5.05;;;;;;;;;;4786031;30;20035;-56
2022/07/29 06:39:06;;;;;;;6.80;5.00;;;;;;;;;;4787320;30;20404;-56
2022/07/29 06:41:32;;;;;;;7.72;5.28;;;;;;;;;;4787092;30;20027;-56
2022/07/29 06:43:59;;;;;;;8.45;5.50;;;;;;;;;;4787014;30;20039;-58
2022/07/29 06:46:25;;;;;;;7.90;4.93;;;;;;;;;;4787192;30;20547;-55
2022/07/29 06:48:51;;;;;;;11.38;4.93;;;;;;;;;;4787098;30;20036;-56
2022/07/29 06:51:17;;;;;;;6.30;4.70;;;;;;;;;;4786884;30;20030;-58
2022/07/29 06:53:43;;;;;;;5.13;4.43;;;;;;;;;;4787133;30;20054;-59
2022/07/29 06:56:12;;;;;;;11.05;4.97;;;;;;;;;;4787184;30;20119;-59
2022/07/29 06:58:38;;;;;;;12.30;5.55;;;;;;;;;;4786699;29;20105;-57
2022/07/29 07:01:05;;;;;;;6.10;5.03;;;;;;;;;;4786600;30;20044;-56
2022/07/29 07:03:32;;;;;;;7.45;5.00;;;;;;;;;;4786252;30;20515;-57
2022/07/29 07:05:58;;;;;;;8.73;5.45;;;;;;;;;;4786757;30;20035;-58
2022/07/29 07:08:24;;;;;;;5.75;5.10;;;;;;;;;;4785993;30;20057;-56
2022/07/29 07:10:51;;;;;;;7.82;4.85;;;;;;;;;;4786637;29;20035;-58
2022/07/29 07:13:17;;;;;;;5.97;4.78;;;;;;;;;;4785014;30;20035;-58
2022/07/29 07:15:44;;;;;;;8.05;5.00;;;;;;;;;;4780847;30;20055;-58
2022/07/29 07:18:10;;;;;;;6.80;4.90;;;;;;;;;;4786498;30;20031;-59
2022/07/29 07:20:36;;;;;;;6.97;5.00;;;;;;;;;;4785900;30;20023;-58
2022/07/29 07:23:02;;;;;;;7.65;5.30;;;;;;;;;;4785849;30;20428;-58
2022/07/29 07:25:29;;;;;;;7.53;4.75;;;;;;;;;;4785016;30;20088;-59
2022/07/29 07:27:55;;;;;;;7.43;5.10;;;;;;;;;;4786271;30;20027;-58
2022/07/29 07:30:21;;;;;;;8.70;5.38;;;;;;;;;;4786255;30;20035;-58
2022/07/29 07:32:47;;;;;;;7.10;4.88;;;;;;;;;;4785299;29;20059;-58
2022/07/29 07:35:13;;;;;;;6.78;5.10;;;;;;;;;;4786255;30;20039;-58
2022/07/29 07:37:41;;;;;;;8.65;5.75;;;;;;;;;;4786113;30;20059;-58
2022/07/29 07:40:07;;;;;;;11.07;5.22;;;;;;;;;;4786129;30;20446;-59
2022/07/29 07:42:34;;;;;;;56.03;11.70;;;;;;;;;;4785840;30;20400;-59
2022/07/29 07:45:00;;;;;;;31.20;8.07;;;;;;;;;;4785887;30;20042;-59
2022/07/29 07:47:26;;;;;;;47.50;9.73;;;;;;;;;;4786507;30;20469;-58
2022/07/29 07:49:52;;;;;;;11.57;6.38;;;;;;;;;;4786358;30;20410;-58
2022/07/29 07:52:18;;;;;;;9.90;6.03;;;;;;;;;;4786423;30;20468;-58
2022/07/29 07:54:45;;;;;;;10.95;5.85;;;;;;;;;;4786204;30;20118;-58
2022/07/29 07:57:11;;;;;;;10.57;5.47;;;;;;;;;;4786217;30;20465;-59
2022/07/29 07:59:37;;;;;;;8.35;5.50;;;;;;;;;;4786201;30;20044;-59
2022/07/29 08:02:04;;;;;;;7.20;5.70;;;;;;;;;;4786299;30;20035;-59
2022/07/29 08:04:30;;;;;;;8.75;5.53;;;;;;;;;;4785695;30;20042;-59
2022/07/29 08:06:57;;;;;;;9.25;5.68;;;;;;;;;;4785855;30;20031;-59
2022/07/29 08:09:24;;;;;;;8.63;5.47;;;;;;;;;;4784817;30;20038;-58
2022/07/29 08:11:50;;;;;;;9.23;5.75;;;;;;;;;;4769255;30;20039;-58
2022/07/29 08:14:16;;;;;;;9.85;5.70;;;;;;;;;;4785806;30;20094;-59
2022/07/29 08:16:42;;;;;;;9.82;6.03;;;;;;;;;;4786095;30;20031;-59
2022/07/29 08:19:09;;;;;;;13.77;5.68;;;;;;;;;;4786076;30;20526;-59
2022/07/29 08:21:35;;;;;;;8.80;5.60;;;;;;;;;;4786088;30;20118;-58
2022/07/29 08:26:45;;;;;;;9.32;5.63;;;;;;;;;;4785427;30;20052;-58
2022/07/29 08:29:12;;;;;;;8.25;5.60;;;;;;;;;;4785443;30;20031;-58
2022/07/29 08:31:39;;;;;;;8.23;5.40;;;;;;;;;;4785931;30;20092;-57
2022/07/29 08:34:05;;;;;;;8.15;5.70;;;;;;;;;;4786162;30;20055;-58
2022/07/29 08:36:31;;;;;;;8.77;5.80;;;;;;;;;;4786312;30;20122;-58
2022/07/29 08:38:58;;;;;;;8.40;5.80;;;;;;;;;;4785947;30;20389;-58
2022/07/29 08:41:24;;;;;;;8.00;5.72;;;;;;;;;;4785729;30;20031;-59
2022/07/29 08:43:52;;;;;;;9.02;5.93;;;;;;;;;;4785161;30;20059;-58
2022/07/29 08:46:18;;;;;;;12.00;6.22;;;;;;;;;;4785685;30;20118;-59
2022/07/29 08:48:44;;;;;;;8.57;5.97;;;;;;;;;;4785401;30;20043;-58
2022/07/29 08:51:14;;;;;;;10.00;5.93;;;;;;;;;;4785553;30;20061;-58
2022/07/29 08:53:41;;;;;;;8.50;5.57;;;;;;;;;;4785797;30;20035;-58
2022/07/29 08:56:07;;;;;;;7.28;5.47;;;;;;;;;;4778446;30;20035;-59
2022/07/29 08:58:34;;;;;;;9.93;6.15;;;;;;;;;;4785599;30;20477;-58
2022/07/29 09:01:01;;;;;;;10.30;5.38;;;;;;;;;;4785708;30;20082;-58
2022/07/29 09:03:31;;;;;;;8.85;5.38;;;;;;;;;;4785601;30;20441;-58
2022/07/29 09:05:57;;;;;;;10.70;5.93;;;;;;;;;;4785184;30;20557;-59
2022/07/29 09:08:23;;;;;;;10.05;5.88;;;;;;;;;;4785306;30;20512;-58
2022/07/29 09:10:51;;;;;;;6.22;5.63;;;;;;;;;;4785710;30;20116;-58
2022/07/29 09:13:17;;;;;;;8.35;6.18;;;;;;;;;;4784992;30;20034;-58
2022/07/29 09:15:43;;;;;;;6.93;5.80;;;;;;;;;;4785499;30;20035;-58
2022/07/29 09:18:09;;;;;;;8.82;5.68;;;;;;;;;;4785573;30;20031;-57
2022/07/29 09:23:20;;;;;;;7.50;6.07;;;;;;;;;;4789036;30;20042;-57
2022/07/29 09:25:46;;;;;;;8.57;6.20;;;;;;;;;;4788817;30;20027;-58
2022/07/29 09:28:13;;;;;;;6.43;5.82;;;;;;;;;;4788891;30;20042;-60
2022/07/29 09:30:52;;;;;;;7.78;6.50;;;;;;;;;;4788699;30;20088;-57
2022/07/29 09:33:18;;;;;;;10.20;6.55;;;;;;;;;;4788417;29;20428;-58
2022/07/29 09:35:44;;;;;;;8.55;6.68;;;;;;;;;;4788401;30;20047;-59
2022/07/29 09:38:11;;;;;;;8.90;6.32;;;;;;;;;;4788726;30;20031;-58
2022/07/29 09:40:38;;;;;;;9.10;6.43;;;;;;;;;;4788513;30;20042;-58
2022/07/29 09:43:12;;;;;;;7.80;6.25;;;;;;;;;;4788551;30;20145;-57
2022/07/29 09:45:39;;;;;;;6.88;5.82;;;;;;;;;;4788359;30;20139;-58
2022/07/29 09:48:18;;;;;;;7.93;7.00;;;;;;;;;;4788370;30;20106;-57
2022/07/29 09:50:46;;;;;;;9.98;6.35;;;;;;;;;;4788213;30;20035;-57
2022/07/29 09:53:12;;;;;;;6.68;6.00;;;;;;;;;;4788285;30;20066;-58
2022/07/29 09:55:51;;;;;;;10.82;7.25;;;;;;;;;;4788254;30;20039;-60
2022/07/29 09:58:18;;;;;;;10.52;7.00;;;;;;;;;;4788543;30;20035;-58
2022/07/29 10:00:45;;;;;;;10.23;6.47;;;;;;;;;;4788327;29;20404;-62
2022/07/29 10:03:11;;;;;;;7.75;6.70;;;;;;;;;;4788169;30;20506;-58
2022/07/29 10:05:39;;;;;;;10.82;6.85;;;;;;;;;;4787896;30;20031;-58
2022/07/29 10:08:05;;;;;;;12.70;6.90;;;;;;;;;;4788237;30;20096;-58
2022/07/29 10:10:33;;;;;;;8.13;7.13;;;;;;;;;;4788167;30;20510;-58
2022/07/29 10:13:03;;;;;;;10.15;7.28;;;;;;;;;;4787977;30;20097;-59
2022/07/29 10:15:37;;;;;;;8.95;6.65;;;;;;;;;;4787462;30;20078;-59
2022/07/29 10:18:03;;;;;;;8.10;7.18;;;;;;;;;;4787805;30;20035;-58
2022/07/29 10:20:29;;;;;;;7.82;6.70;;;;;;;;;;4787538;30;20061;-58
2022/07/29 10:22:57;;;;;;;8.90;6.72;;;;;;;;;;4787668;30;20450;-58
2022/07/29 10:25:23;;;;;;;9.57;7.00;;;;;;;;;;4787662;30;20447;-58
2022/07/29 10:27:51;;;;;;;10.02;6.95;;;;;;;;;;4787661;30;20035;-58
2022/07/29 10:30:17;;;;;;;9.02;7.15;;;;;;;;;;4787869;30;20031;-58
2022/07/29 10:32:46;;;;;;;9.60;7.13;;;;;;;;;;4786893;29;20114;-58
2022/07/29 10:35:31;;;;;;;9.65;7.75;;;;;;;;;;4787362;30;20488;-58
2022/07/29 10:38:04;;;;;;;12.07;7.68;;;;;;;;;;4787742;30;20065;-58
2022/07/29 10:43:26;;;;;;;10.85;7.28;;;;;;;;;;4787421;30;20049;-58
2022/07/29 10:45:56;;;;;;;10.18;7.30;;;;;;;;;;4787401;30;20023;-58
2022/07/29 10:48:22;;;;;;;9.95;7.85;;;;;;;;;;4787527;30;20039;-58
2022/07/29 10:51:02;;;;;;;9.13;7.45;;;;;;;;;;4787282;30;20392;-58
2022/07/29 10:53:47;;;;;;;8.95;7.68;;;;;;;;;;4787248;30;20057;-59
2022/07/29 10:56:26;;;;;;;9.10;7.47;;;;;;;;;;4787356;30;20043;-58
2022/07/29 10:59:11;;;;;;;10.13;7.57;;;;;;;;;;4787212;30;20534;-60
2022/07/29 11:01:37;;;;;;;8.50;7.60;;;;;;;;;;4787496;30;20051;-58
2022/07/29 11:04:04;;;;;;;8.32;7.43;;;;;;;;;;4787130;30;20043;-58
2022/07/29 11:06:57;;;;;;;12.50;7.90;;;;;;;;;;4786902;30;20023;-60
2022/07/29 11:09:22;;;;;;;;;;;;;;;;;;4714495;30;20094;-58
2022/07/29 11:11:49;;;;;;;7.93;7.10;;;;;;;;;;4714182;30;19919;-58
2022/07/29 11:14:16;;;;;;;10.80;7.60;;;;;;;;;;4713885;30;20056;-59
2022/07/29 11:17:00;;;;;;;10.02;7.82;;;;;;;;;;4713973;30;20071;-58
2022/07/29 11:19:26;;;;;;;16.13;8.30;;;;;;;;;;4713441;30;20037;-59
2022/07/29 11:21:52;;;;;;;9.57;8.23;;;;;;;;;;4713919;30;20037;-58
2022/07/29 11:24:31;;;;;;;10.43;7.40;;;;;;;;;;4713535;30;20115;-61
2022/07/29 11:27:11;;;;;;;10.43;7.70;;;;;;;;;;4713952;30;20052;-58
2022/07/29 11:29:56;;;;;;;13.00;8.35;;;;;;;;;;4713705;30;20040;-58
2022/07/29 11:32:23;;;;;;;14.45;7.43;;;;;;;;;;4713589;30;20061;-58
2022/07/29 11:35:09;;;;;;;11.30;8.60;;;;;;;;;;4713642;30;20053;-59
2022/07/29 11:37:35;;;;;;;11.10;7.47;;;;;;;;;;4713605;30;20455;-58
2022/07/29 11:40:04;;;;;;;9.32;7.95;;;;;;;;;;4713690;30;20057;-58
2022/07/29 11:42:37;;;;;;;9.63;7.65;;;;;;;;;;4713765;30;20522;-58
2022/07/29 11:45:23;;;;;;;10.10;8.27;;;;;;;;;;4715543;30;20064;-58
2022/07/29 11:47:50;;;;;;;10.52;7.72;;;;;;;;;;4786251;30;20076;-58
2022/07/29 11:50:33;;;;;;;10.55;8.35;;;;;;;;;;4786336;30;20102;-57
2022/07/29 11:53:00;;;;;;;8.43;7.50;;;;;;;;;;4784838;30;20042;-59
2022/07/29 11:55:26;;;;;;;11.35;8.13;;;;;;;;;;4785762;30;20039;-58
2022/07/29 11:57:53;;;;;;;9.20;8.10;;;;;;;;;;4786361;30;20120;-58
2022/07/29 12:00:27;;;;;;;13.50;8.15;;;;;;;;;;4786162;30;20038;-58
2022/07/29 12:02:53;;;;;;;8.73;7.78;;;;;;;;;;4786301;30;20074;-58
2022/07/29 12:05:20;;;;;;;10.05;7.85;;;;;;;;;;4786141;30;20155;-58
2022/07/29 12:07:46;;;;;;;12.05;7.88;;;;;;;;;;4786099;30;20039;-58
2022/07/29 12:10:12;;;;;;;10.88;7.47;;;;;;;;;;4786153;30;20362;-58
2022/07/29 12:12:39;;;;;;;11.35;8.02;;;;;;;;;;4785972;30;20105;-58
2022/07/29 12:15:11;;;;;;;11.68;8.05;;;;;;;;;;4785991;30;20071;-58
2022/07/29 12:17:38;;;;;;;9.90;8.15;;;;;;;;;;4785959;30;20038;-60
2022/07/29 12:20:05;;;;;;;9.18;8.18;;;;;;;;;;4785971;30;20038;-58
2022/07/29 12:22:33;;;;;;;11.00;7.55;;;;;;;;;;4785945;30;20039;-58
2022/07/29 12:25:18;;;;;;;11.50;8.40;;;;;;;;;;4781775;30;20030;-60
2022/07/29 12:27:44;;;;;;;11.45;7.70;;;;;;;;;;4785891;30;20035;-58
2022/07/29 12:30:15;;;;;;;9.10;7.80;;;;;;;;;;4785922;30;20120;-57
2022/07/29 12:32:48;;;;;;;8.93;8.02;;;;;;;;;;4785688;29;20055;-58
2022/07/29 12:35:20;;;;;;;10.82;8.13;;;;;;;;;;4785607;30;20035;-61
2022/07/29 12:37:49;;;;;;;9.70;8.43;;;;;;;;;;4785892;30;20035;-58
2022/07/29 12:40:16;;;;;;;9.77;7.85;;;;;;;;;;4786197;30;20031;-58
2022/07/29 12:43:02;;;;;;;9.70;8.07;;;;;;;;;;4785734;30;20040;-58
2022/07/29 12:45:29;;;;;;;10.48;8.07;;;;;;;;;;4785480;30;20031;-58
2022/07/29 12:47:55;;;;;;;12.98;9.15;;;;;;;;;;4785898;30;20392;-58
2022/07/29 12:50:21;;;;;;;13.00;8.55;;;;;;;;;;4785877;30;20027;-58
2022/07/29 12:52:47;;;;;;;12.63;9.38;;;;;;;;;;4785743;30;20439;-58
2022/07/29 12:55:14;;;;;;;15.77;8.88;;;;;;;;;;4786503;29;20051;-58
2022/07/29 12:57:47;;;;;;;11.73;9.20;;;;;;;;;;4789281;30;20081;-60
2022/07/29 13:00:13;;;;;;;10.40;8.60;;;;;;;;;;4789166;30;20031;-58
2022/07/29 13:02:41;;;;;;;11.07;8.70;;;;;;;;;;4789528;30;20042;-58
2022/07/29 13:05:10;;;;;;;16.15;9.32;;;;;;;;;;4789055;30;20144;-58
2022/07/29 13:07:37;;;;;;;9.13;8.20;;;;;;;;;;4789273;30;20043;-61
2022/07/29 13:10:16;;;;;;;11.27;8.45;;;;;;;;;;4789005;30;20039;-60
2022/07/29 13:13:01;;;;;;;12.05;8.57;;;;;;;;;;4788888;30;20035;-58
2022/07/29 13:15:27;;;;;;;10.15;9.07;;;;;;;;;;4788571;30;20046;-58
2022/07/29 13:17:53;;;;;;;9.77;8.52;;;;;;;;;;4788994;30;20046;-59
2022/07/29 13:20:24;;;;;;;9.30;8.40;;;;;;;;;;4788834;30;20046;-58
2022/07/29 13:22:50;;;;;;;10.15;8.80;;;;;;;;;;4788702;30;20034;-58
2022/07/29 13:25:23;;;;;;;9.65;8.75;;;;;;;;;;4788946;30;20071;-58
2022/07/29 13:27:49;;;;;;;10.65;8.27;;;;;;;;;;4788683;30;20035;-61
2022/07/29 13:30:15;;;;;;;9.15;8.25;;;;;;;;;;4783889;30;20042;-58
2022/07/29 13:32:41;;;;;;;9.82;8.20;;;;;;;;;;4787786;29;20050;-58
2022/07/29 13:35:08;;;;;;;10.95;8.75;;;;;;;;;;4788257;30;20047;-61
2022/07/29 13:37:37;;;;;;;9.75;8.63;;;;;;;;;;4788189;30;20035;-58
2022/07/29 13:40:04;;;;;;;10.45;7.93;;;;;;;;;;4787692;30;20508;-59
2022/07/29 13:42:30;;;;;;;10.38;8.27;;;;;;;;;;4788066;30;20449;-61
2022/07/29 13:44:56;;;;;;;8.93;8.02;;;;;;;;;;4787914;30;20032;-58
2022/07/29 13:47:22;;;;;;;9.00;8.07;;;;;;;;;;4788015;30;20406;-58
2022/07/29 13:49:49;;;;;;;10.70;8.90;;;;;;;;;;4788008;30;20039;-58
2022/07/29 13:52:15;;;;;;;17.27;9.65;;;;;;;;;;4787995;30;20031;-59
2022/07/29 13:54:41;;;;;;;10.65;8.93;;;;;;;;;;4787875;30;20056;-57
2022/07/29 13:57:07;;;;;;;11.25;8.70;;;;;;;;;;4788398;30;20081;-57
2022/07/29 13:59:34;;;;;;;9.85;8.57;;;;;;;;;;4787983;30;20065;-58
2022/07/29 14:02:00;;;;;;;9.68;8.32;;;;;;;;;;4787959;30;20031;-57
2022/07/29 14:04:26;;;;;;;12.30;8.43;;;;;;;;;;4788057;30;20485;-57
2022/07/29 14:06:52;;;;;;;9.82;8.63;;;;;;;;;;4786783;29;20366;-62
2022/07/29 14:09:19;;;;;;;9.70;8.70;;;;;;;;;;4787698;30;20179;-58
2022/07/29 14:11:45;;;;;;;11.90;8.75;;;;;;;;;;4787580;30;20438;-62
2022/07/29 14:14:12;;;;;;;10.40;8.70;;;;;;;;;;4787373;30;20135;-59
2022/07/29 14:16:38;;;;;;;12.18;8.98;;;;;;;;;;4787469;30;20035;-58
2022/07/29 14:19:04;;;;;;;10.65;8.35;;;;;;;;;;4787438;30;20031;-58
2022/07/29 14:21:30;;;;;;;9.40;7.78;;;;;;;;;;4787398;30;20067;-63
2022/07/29 14:23:56;;;;;;;10.32;8.07;;;;;;;;;;4787584;30;20055;-58
2022/07/29 14:26:22;;;;;;;9.82;8.15;;;;;;;;;;4787134;30;20031;-58
2022/07/29 14:28:49;;;;;;;10.38;8.50;;;;;;;;;;4787262;30;20071;-58
2022/07/29 14:31:15;;;;;;;9.73;7.82;;;;;;;;;;4787466;30;20605;-58
2022/07/29 14:33:42;;;;;;;12.88;9.20;;;;;;;;;;4786773;30;20063;-64
2022/07/29 14:36:09;;;;;;;9.20;8.20;;;;;;;;;;4787238;30;20046;-58
2022/07/29 14:38:35;;;;;;;10.50;8.48;;;;;;;;;;4787414;30;20033;-58
2022/07/29 14:41:01;;;;;;;11.40;8.40;;;;;;;;;;4786847;30;20028;-58
2022/07/29 14:43:27;;;;;;;10.13;8.05;;;;;;;;;;4787171;30;20042;-58
2022/07/29 14:45:53;;;;;;;14.18;8.10;;;;;;;;;;4786644;30;20035;-58
2022/07/29 14:48:19;;;;;;;12.07;8.18;;;;;;;;;;4786898;30;20512;-61
2022/07/29 14:50:45;;;;;;;12.40;7.80;;;;;;;;;;4786894;30;20110;-58